sensor_id;sensor_type;location;lat;lon;timestamp;pressure;altitude;pressure_sealevel;temperature;humidity
61394;BME280;48555;50.952;-0.120;2023-07-29T00:02:07;100183.47;;;20.18;85.41
61394;BME280;48555;50.952;-0.120;2023-07-29T00:04:33;100188.94;;;20.16;85.79
61394;BME280;48555;50.952;-0.120;2023-07-29T00:06:58;100179.97;;;20.17;85.80
61394;BME280;48555;50.952;-0.120;2023-07-29T00:09:23;100174.66;;;20.17;85.54
61394;BME280;48555;50.952;-0.120;2023-07-29T00:11:49;100172.38;;;20.14;85.87
61394;BME280;48555;50.952;-0.120;2023-07-29T00:14:14;100190.13;;;20.14;85.65
61394;BME280;48555;50.952;-0.120;2023-07-29T00:16:39;100194.44;;;20.15;85.48
61394;BME280;48555;50.952;-0.120;2023-07-29T00:19:05;100195.44;;;20.14;85.47
61394;BME280;48555;50.952;-0.120;2023-07-29T00:21:30;100200.38;;;20.17;84.77
61394;BME280;48555;50.952;-0.120;2023-07-29T00:23:55;100197.09;;;20.15;84.37
61394;BME280;48555;50.952;-0.120;2023-07-29T00:26:25;100196.25;;;20.14;84.18
61394;BME280;48555;50.952;-0.120;2023-07-29T00:28:54;100193.81;;;20.13;84.07
61394;BME280;48555;50.952;-0.120;2023-07-29T00:31:19;100198.66;;;20.09;83.70
61394;BME280;48555;50.952;-0.120;2023-07-29T00:33:44;100201.31;;;20.09;83.70
61394;BME280;48555;50.952;-0.120;2023-07-29T00:36:09;100193.72;;;20.06;83.50
61394;BME280;48555;50.952;-0.120;2023-07-29T00:38:35;100184.47;;;20.02;83.51
61394;BME280;48555;50.952;-0.120;2023-07-29T00:41:02;100191.44;;;20.03;83.50
61394;BME280;48555;50.952;-0.120;2023-07-29T00:43:28;100176.72;;;20.01;83.28
61394;BME280;48555;50.952;-0.120;2023-07-29T00:45:53;100185.50;;;20.01;83.32
61394;BME280;48555;50.952;-0.120;2023-07-29T00:48:19;100181.00;;;20.02;83.23
61394;BME280;48555;50.952;-0.120;2023-07-29T00:50:44;100187.13;;;20.02;83.05
61394;BME280;48555;50.952;-0.120;2023-07-29T00:53:10;100177.53;;;20.01;82.99
61394;BME280;48555;50.952;-0.120;2023-07-29T00:55:35;100167.09;;;20.00;82.61
61394;BME280;48555;50.952;-0.120;2023-07-29T00:58:02;100173.94;;;19.94;82.72
61394;BME280;48555;50.952;-0.120;2023-07-29T01:00:28;100167.91;;;19.85;82.67
61394;BME280;48555;50.952;-0.120;2023-07-29T01:02:53;100184.50;;;19.87;82.67
61394;BME280;48555;50.952;-0.120;2023-07-29T01:05:20;100176.25;;;19.82;82.42
61394;BME280;48555;50.952;-0.120;2023-07-29T01:08:16;100172.16;;;19.80;82.50
61394;BME280;48555;50.952;-0.120;2023-07-29T01:10:58;100174.63;;;19.81;82.14
61394;BME280;48555;50.952;-0.120;2023-07-29T01:13:33;100164.56;;;19.77;82.06
61394;BME280;48555;50.952;-0.120;2023-07-29T01:16:09;100166.38;;;19.76;81.88
61394;BME280;48555;50.952;-0.120;2023-07-29T01:18:38;100161.19;;;19.68;81.95
61394;BME280;48555;50.952;-0.120;2023-07-29T01:21:07;100166.50;;;19.68;81.94
61394;BME280;48555;50.952;-0.120;2023-07-29T01:23:34;100144.75;;;19.64;81.86
61394;BME280;48555;50.952;-0.120;2023-07-29T01:26:00;100156.06;;;19.66;81.63
61394;BME280;48555;50.952;-0.120;2023-07-29T01:28:26;100155.22;;;19.66;81.82
61394;BME280;48555;50.952;-0.120;2023-07-29T01:30:57;100130.97;;;19.54;81.76
61394;BME280;48555;50.952;-0.120;2023-07-29T01:33:30;100151.91;;;19.64;81.78
61394;BME280;48555;50.952;-0.120;2023-07-29T01:36:06;100140.47;;;19.63;81.68
61394;BME280;48555;50.952;-0.120;2023-07-29T01:38:33;100139.00;;;19.61;81.89
61394;BME280;48555;50.952;-0.120;2023-07-29T01:41:06;100141.66;;;19.61;82.09
61394;BME280;48555;50.952;-0.120;2023-07-29T01:43:33;100142.69;;;19.60;82.19
61394;BME280;48555;50.952;-0.120;2023-07-29T01:46:00;100147.97;;;19.60;82.37
61394;BME280;48555;50.952;-0.120;2023-07-29T01:48:26;100134.88;;;19.58;82.37
61394;BME280;48555;50.952;-0.120;2023-07-29T01:50:52;100136.56;;;19.59;82.77
61394;BME280;48555;50.952;-0.120;2023-07-29T01:53:18;100132.81;;;19.54;82.62
61394;BME280;48555;50.952;-0.120;2023-07-29T01:55:44;100150.63;;;19.60;82.67
61394;BME280;48555;50.952;-0.120;2023-07-29T01:58:10;100140.19;;;19.58;82.82
61394;BME280;48555;50.952;-0.120;2023-07-29T02:00:35;100140.41;;;19.57;83.09
61394;BME280;48555;50.952;-0.120;2023-07-29T02:03:00;100148.16;;;19.58;83.12
61394;BME280;48555;50.952;-0.120;2023-07-29T02:05:26;100147.34;;;19.58;83.11
61394;BME280;48555;50.952;-0.120;2023-07-29T02:07:51;100149.16;;;19.57;83.34
61394;BME280;48555;50.952;-0.120;2023-07-29T02:10:17;100158.59;;;19.60;83.32
61394;BME280;48555;50.952;-0.120;2023-07-29T02:12:42;100155.56;;;19.63;83.56
61394;BME280;48555;50.952;-0.120;2023-07-29T02:15:08;100145.94;;;19.62;83.71
61394;BME280;48555;50.952;-0.120;2023-07-29T02:17:34;100153.75;;;19.63;83.94
61394;BME280;48555;50.952;-0.120;2023-07-29T02:20:00;100151.09;;;19.63;83.87
61394;BME280;48555;50.952;-0.120;2023-07-29T02:22:25;100138.63;;;19.64;84.00
61394;BME280;48555;50.952;-0.120;2023-07-29T02:24:50;100145.78;;;19.63;84.22
61394;BME280;48555;50.952;-0.120;2023-07-29T02:27:16;100127.59;;;19.60;84.25
61394;BME280;48555;50.952;-0.120;2023-07-29T02:29:41;100143.81;;;19.65;83.97
61394;BME280;48555;50.952;-0.120;2023-07-29T02:32:06;100130.69;;;19.64;83.94
61394;BME280;48555;50.952;-0.120;2023-07-29T02:34:32;100129.97;;;19.70;83.83
61394;BME280;48555;50.952;-0.120;2023-07-29T02:36:57;100124.66;;;19.70;83.60
61394;BME280;48555;50.952;-0.120;2023-07-29T02:39:22;100124.66;;;19.70;83.58
61394;BME280;48555;50.952;-0.120;2023-07-29T02:41:48;100126.34;;;19.71;83.52
61394;BME280;48555;50.952;-0.120;2023-07-29T02:44:14;100125.31;;;19.72;83.50
61394;BME280;48555;50.952;-0.120;2023-07-29T02:46:40;100114.72;;;19.72;83.42
61394;BME280;48555;50.952;-0.120;2023-07-29T02:49:05;100121.47;;;19.74;83.22
61394;BME280;48555;50.952;-0.120;2023-07-29T02:51:31;100118.81;;;19.74;83.29
61394;BME280;48555;50.952;-0.120;2023-07-29T02:53:56;100116.16;;;19.74;83.44
61394;BME280;48555;50.952;-0.120;2023-07-29T02:56:21;100119.00;;;19.73;83.32
61394;BME280;48555;50.952;-0.120;2023-07-29T02:58:47;100112.72;;;19.74;83.40
61394;BME280;48555;50.952;-0.120;2023-07-29T03:01:12;100122.47;;;19.73;83.13
61394;BME280;48555;50.952;-0.120;2023-07-29T03:03:38;100127.59;;;19.75;83.61
61394;BME280;48555;50.952;-0.120;2023-07-29T03:06:06;100121.28;;;19.76;83.38
61394;BME280;48555;50.952;-0.120;2023-07-29T03:08:32;100116.34;;;19.73;83.39
61394;BME280;48555;50.952;-0.120;2023-07-29T03:10:58;100106.38;;;19.75;83.53
61394;BME280;48555;50.952;-0.120;2023-07-29T03:13:24;100113.69;;;19.73;83.73
61394;BME280;48555;50.952;-0.120;2023-07-29T03:15:49;100112.22;;;19.70;83.65
61394;BME280;48555;50.952;-0.120;2023-07-29T03:18:15;100113.44;;;19.68;83.78
61394;BME280;48555;50.952;-0.120;2023-07-29T03:20:41;100110.16;;;19.66;83.99
61394;BME280;48555;50.952;-0.120;2023-07-29T03:23:06;100109.31;;;19.65;84.09
61394;BME280;48555;50.952;-0.120;2023-07-29T03:25:32;100111.31;;;19.63;83.91
61394;BME280;48555;50.952;-0.120;2023-07-29T03:27:57;100108.00;;;19.61;83.94
61394;BME280;48555;50.952;-0.120;2023-07-29T03:30:23;100103.88;;;19.59;83.95
61394;BME280;48555;50.952;-0.120;2023-07-29T03:32:49;100107.19;;;19.61;84.15
61394;BME280;48555;50.952;-0.120;2023-07-29T03:35:14;100111.66;;;19.60;83.89
61394;BME280;48555;50.952;-0.120;2023-07-29T03:37:40;100110.84;;;19.60;84.12
61394;BME280;48555;50.952;-0.120;2023-07-29T03:40:06;100109.56;;;19.56;83.96
61394;BME280;48555;50.952;-0.120;2023-07-29T03:42:32;100112.03;;;19.57;84.25
61394;BME280;48555;50.952;-0.120;2023-07-29T03:44:58;100116.53;;;19.57;84.17
61394;BME280;48555;50.952;-0.120;2023-07-29T03:47:23;100109.56;;;19.56;84.25
61394;BME280;48555;50.952;-0.120;2023-07-29T03:49:48;100118.38;;;19.56;84.28
61394;BME280;48555;50.952;-0.120;2023-07-29T03:52:14;100122.00;;;19.55;84.12
61394;BME280;48555;50.952;-0.120;2023-07-29T03:54:39;100122.19;;;19.54;84.54
61394;BME280;48555;50.952;-0.120;2023-07-29T03:57:05;100117.25;;;19.50;84.56
61394;BME280;48555;50.952;-0.120;2023-07-29T03:59:30;100117.63;;;19.47;84.60
61394;BME280;48555;50.952;-0.120;2023-07-29T04:01:55;100109.56;;;19.41;84.81
61394;BME280;48555;50.952;-0.120;2023-07-29T04:04:21;100123.47;;;19.43;84.98
61394;BME280;48555;50.952;-0.120;2023-07-29T04:06:46;100115.22;;;19.38;85.13
61394;BME280;48555;50.952;-0.120;2023-07-29T04:09:12;100120.00;;;19.42;85.11
61394;BME280;48555;50.952;-0.120;2023-07-29T04:11:37;100115.88;;;19.40;85.17
61394;BME280;48555;50.952;-0.120;2023-07-29T04:14:03;100110.75;;;19.38;85.71
61394;BME280;48555;50.952;-0.120;2023-07-29T04:16:28;100117.88;;;19.38;85.75
61394;BME280;48555;50.952;-0.120;2023-07-29T04:18:54;100128.47;;;19.38;85.69
61394;BME280;48555;50.952;-0.120;2023-07-29T04:21:19;100116.91;;;19.39;85.84
61394;BME280;48555;50.952;-0.120;2023-07-29T04:23:45;100128.13;;;19.41;85.73
61394;BME280;48555;50.952;-0.120;2023-07-29T04:26:10;100120.38;;;19.39;85.92
61394;BME280;48555;50.952;-0.120;2023-07-29T04:28:35;100121.19;;;19.40;85.89
61394;BME280;48555;50.952;-0.120;2023-07-29T04:31:01;100118.91;;;19.37;86.04
61394;BME280;48555;50.952;-0.120;2023-07-29T04:33:26;100130.78;;;19.41;85.70
61394;BME280;48555;50.952;-0.120;2023-07-29T04:35:52;100134.81;;;19.37;85.88
61394;BME280;48555;50.952;-0.120;2023-07-29T04:38:17;100135.91;;;19.42;85.96
61394;BME280;48555;50.952;-0.120;2023-07-29T04:40:42;100126.31;;;19.41;85.81
61394;BME280;48555;50.952;-0.120;2023-07-29T04:43:08;100121.84;;;19.42;85.87
61394;BME280;48555;50.952;-0.120;2023-07-29T04:45:33;100128.59;;;19.44;86.05
61394;BME280;48555;50.952;-0.120;2023-07-29T04:47:58;100120.00;;;19.42;85.92
61394;BME280;48555;50.952;-0.120;2023-07-29T04:50:24;100122.81;;;19.41;85.92
61394;BME280;48555;50.952;-0.120;2023-07-29T04:52:49;100130.97;;;19.39;85.73
61394;BME280;48555;50.952;-0.120;2023-07-29T04:55:15;100129.31;;;19.38;85.49
61394;BME280;48555;50.952;-0.120;2023-07-29T04:57:40;100126.03;;;19.36;86.06
61394;BME280;48555;50.952;-0.120;2023-07-29T05:00:06;100135.81;;;19.36;86.14
61394;BME280;48555;50.952;-0.120;2023-07-29T05:02:31;100122.09;;;19.32;86.28
61394;BME280;48555;50.952;-0.120;2023-07-29T05:04:57;100127.66;;;19.37;86.37
61394;BME280;48555;50.952;-0.120;2023-07-29T05:07:22;100127.66;;;19.37;86.09
61394;BME280;48555;50.952;-0.120;2023-07-29T05:09:48;100127.22;;;19.34;86.41
61394;BME280;48555;50.952;-0.120;2023-07-29T05:12:13;100130.31;;;19.37;86.40
61394;BME280;48555;50.952;-0.120;2023-07-29T05:14:38;100124.56;;;19.34;86.45
61394;BME280;48555;50.952;-0.120;2023-07-29T05:17:04;100132.59;;;19.40;86.33
61394;BME280;48555;50.952;-0.120;2023-07-29T05:19:30;100132.59;;;19.40;86.44
61394;BME280;48555;50.952;-0.120;2023-07-29T05:21:56;100136.91;;;19.41;86.55
61394;BME280;48555;50.952;-0.120;2023-07-29T05:24:22;100127.50;;;19.39;86.46
61394;BME280;48555;50.952;-0.120;2023-07-29T05:26:48;100122.38;;;19.37;86.67
61394;BME280;48555;50.952;-0.120;2023-07-29T05:29:13;100131.97;;;19.38;86.75
61394;BME280;48555;50.952;-0.120;2023-07-29T05:31:39;100130.97;;;19.39;86.87
61394;BME280;48555;50.952;-0.120;2023-07-29T05:34:04;100135.09;;;19.42;86.66
61394;BME280;48555;50.952;-0.120;2023-07-29T05:36:29;100141.38;;;19.41;86.82
61394;BME280;48555;50.952;-0.120;2023-07-29T05:38:54;100146.69;;;19.41;86.87
61394;BME280;48555;50.952;-0.120;2023-07-29T05:41:20;100145.84;;;19.40;87.08
61394;BME280;48555;50.952;-0.120;2023-07-29T05:43:45;100143.88;;;19.42;87.04
61394;BME280;48555;50.952;-0.120;2023-07-29T05:46:12;100139.56;;;19.41;87.08
61394;BME280;48555;50.952;-0.120;2023-07-29T05:48:37;100127.94;;;19.42;87.36
61394;BME280;48555;50.952;-0.120;2023-07-29T05:51:02;100128.97;;;19.41;87.48
61394;BME280;48555;50.952;-0.120;2023-07-29T05:53:28;100136.19;;;19.47;87.29
61394;BME280;48555;50.952;-0.120;2023-07-29T05:55:53;100130.88;;;19.47;87.18
61394;BME280;48555;50.952;-0.120;2023-07-29T05:58:18;100145.25;;;19.53;87.27
61394;BME280;48555;50.952;-0.120;2023-07-29T06:00:44;100144.22;;;19.54;87.40
61394;BME280;48555;50.952;-0.120;2023-07-29T06:03:09;100148.88;;;19.52;87.40
61394;BME280;48555;50.952;-0.120;2023-07-29T06:05:34;100145.25;;;19.53;87.56
61394;BME280;48555;50.952;-0.120;2023-07-29T06:08:00;100143.22;;;19.55;87.65
61394;BME280;48555;50.952;-0.120;2023-07-29T06:10:25;100136.91;;;19.56;87.67
61394;BME280;48555;50.952;-0.120;2023-07-29T06:12:51;100141.00;;;19.59;87.75
61394;BME280;48555;50.952;-0.120;2023-07-29T06:15:16;100137.00;;;19.63;87.86
61394;BME280;48555;50.952;-0.120;2023-07-29T06:17:41;100132.19;;;19.66;87.68
61394;BME280;48555;50.952;-0.120;2023-07-29T06:20:07;100131.16;;;19.67;87.94
61394;BME280;48555;50.952;-0.120;2023-07-29T06:22:32;100139.59;;;19.71;87.79
61394;BME280;48555;50.952;-0.120;2023-07-29T06:24:58;100139.41;;;19.72;87.62
61394;BME280;48555;50.952;-0.120;2023-07-29T06:27:24;100129.00;;;19.71;87.87
61394;BME280;48555;50.952;-0.120;2023-07-29T06:29:50;100137.56;;;19.73;87.73
61394;BME280;48555;50.952;-0.120;2023-07-29T06:32:15;100146.00;;;19.77;87.72
61394;BME280;48555;50.952;-0.120;2023-07-29T06:34:41;100140.94;;;19.82;87.85
61394;BME280;48555;50.952;-0.120;2023-07-29T06:37:06;100141.03;;;19.88;87.91
61394;BME280;48555;50.952;-0.120;2023-07-29T06:39:31;100141.50;;;19.92;88.04
61394;BME280;48555;50.952;-0.120;2023-07-29T06:41:57;100141.13;;;19.95;87.96
61394;BME280;48555;50.952;-0.120;2023-07-29T06:44:23;100145.84;;;20.00;87.62
61394;BME280;48555;50.952;-0.120;2023-07-29T06:46:48;100142.81;;;20.03;87.78
61394;BME280;48555;50.952;-0.120;2023-07-29T06:49:13;100136.34;;;20.05;87.64
61394;BME280;48555;50.952;-0.120;2023-07-29T06:51:39;100136.34;;;20.05;87.55
61394;BME280;48555;50.952;-0.120;2023-07-29T06:54:04;100144.63;;;20.17;87.34
61394;BME280;48555;50.952;-0.120;2023-07-29T06:56:29;100147.13;;;20.40;87.55
61394;BME280;48555;50.952;-0.120;2023-07-29T06:58:55;100135.09;;;20.59;87.53
61394;BME280;48555;50.952;-0.120;2023-07-29T07:01:20;100139.69;;;20.93;86.94
61394;BME280;48555;50.952;-0.120;2023-07-29T07:03:45;100130.34;;;21.60;86.28
61394;BME280;48555;50.952;-0.120;2023-07-29T07:06:11;100140.38;;;22.06;83.92
61394;BME280;48555;50.952;-0.120;2023-07-29T07:08:36;100134.53;;;22.31;82.06
61394;BME280;48555;50.952;-0.120;2023-07-29T07:11:02;100143.78;;;22.41;80.47
61394;BME280;48555;50.952;-0.120;2023-07-29T07:13:27;100137.81;;;22.39;78.81
61394;BME280;48555;50.952;-0.120;2023-07-29T07:15:56;100150.50;;;22.31;78.17
61394;BME280;48555;50.952;-0.120;2023-07-29T07:18:21;100147.19;;;22.22;77.87
61394;BME280;48555;50.952;-0.120;2023-07-29T07:20:51;100145.91;;;22.11;77.50
61394;BME280;48555;50.952;-0.120;2023-07-29T07:23:17;100134.00;;;22.00;76.64
61394;BME280;48555;50.952;-0.120;2023-07-29T07:25:43;100133.41;;;22.12;76.80
61394;BME280;48555;50.952;-0.120;2023-07-29T07:28:09;100136.50;;;22.15;75.42
61394;BME280;48555;50.952;-0.120;2023-07-29T07:30:35;100140.56;;;22.05;74.53
61394;BME280;48555;50.952;-0.120;2023-07-29T07:33:00;100140.38;;;22.06;74.40
61394;BME280;48555;50.952;-0.120;2023-07-29T07:35:26;100147.56;;;22.12;74.71
61394;BME280;48555;50.952;-0.120;2023-07-29T07:37:51;100131.66;;;22.32;74.05
61394;BME280;48555;50.952;-0.120;2023-07-29T07:40:16;100142.38;;;22.65;74.96
61394;BME280;48555;50.952;-0.120;2023-07-29T07:42:42;100144.63;;;22.68;74.00
61394;BME280;48555;50.952;-0.120;2023-07-29T07:45:07;100140.94;;;22.63;73.10
61394;BME280;48555;50.952;-0.120;2023-07-29T07:47:32;100135.59;;;22.56;73.06
61394;BME280;48555;50.952;-0.120;2023-07-29T07:49:58;100137.88;;;22.59;72.91
61394;BME280;48555;50.952;-0.120;2023-07-29T07:52:23;100136.63;;;22.68;72.96
61394;BME280;48555;50.952;-0.120;2023-07-29T07:54:52;100138.72;;;23.06;73.02
61394;BME280;48555;50.952;-0.120;2023-07-29T07:57:19;100146.63;;;23.53;71.81
61394;BME280;48555;50.952;-0.120;2023-07-29T07:59:45;100148.63;;;23.84;70.94
61394;BME280;48555;50.952;-0.120;2023-07-29T08:02:10;100143.19;;;24.04;69.46
61394;BME280;48555;50.952;-0.120;2023-07-29T08:04:36;100142.34;;;24.10;67.31
61394;BME280;48555;50.952;-0.120;2023-07-29T08:07:01;100146.03;;;24.16;66.69
61394;BME280;48555;50.952;-0.120;2023-07-29T08:09:26;100146.59;;;24.24;66.45
61394;BME280;48555;50.952;-0.120;2023-07-29T08:11:52;100153.00;;;24.55;64.53
61394;BME280;48555;50.952;-0.120;2023-07-29T08:14:17;100146.16;;;24.66;62.06
61394;BME280;48555;50.952;-0.120;2023-07-29T08:16:42;100145.72;;;24.69;60.00
61394;BME280;48555;50.952;-0.120;2023-07-29T08:19:08;100143.84;;;24.69;58.95
61394;BME280;48555;50.952;-0.120;2023-07-29T08:21:35;100133.94;;;24.77;58.03
61394;BME280;48555;50.952;-0.120;2023-07-29T08:24:00;100127.84;;;24.95;57.96
61394;BME280;48555;50.952;-0.120;2023-07-29T08:26:25;100139.00;;;25.10;57.57
61394;BME280;48555;50.952;-0.120;2023-07-29T08:28:51;100137.91;;;25.18;57.39
61394;BME280;48555;50.952;-0.120;2023-07-29T08:31:16;100141.38;;;25.25;56.44
61394;BME280;48555;50.952;-0.120;2023-07-29T08:33:41;100139.16;;;25.40;56.19
61394;BME280;48555;50.952;-0.120;2023-07-29T08:36:07;100137.97;;;25.36;55.42
61394;BME280;48555;50.952;-0.120;2023-07-29T08:38:32;100143.97;;;25.50;54.71
61394;BME280;48555;50.952;-0.120;2023-07-29T08:41:22;100138.16;;;25.53;54.56
61394;BME280;48555;50.952;-0.120;2023-07-29T08:44:01;100137.50;;;25.57;53.80
61394;BME280;48555;50.952;-0.120;2023-07-29T08:46:28;100147.16;;;25.58;53.80
61394;BME280;48555;50.952;-0.120;2023-07-29T08:48:54;100136.19;;;25.48;53.36
61394;BME280;48555;50.952;-0.120;2023-07-29T08:51:21;100136.72;;;25.38;53.90
61394;BME280;48555;50.952;-0.120;2023-07-29T08:53:48;100141.44;;;25.36;54.32
61394;BME280;48555;50.952;-0.120;2023-07-29T08:56:15;100138.84;;;25.30;54.24
61394;BME280;48555;50.952;-0.120;2023-07-29T08:58:41;100140.38;;;25.19;54.59
61394;BME280;48555;50.952;-0.120;2023-07-29T09:01:07;100141.25;;;25.13;55.11
61394;BME280;48555;50.952;-0.120;2023-07-29T09:03:32;100138.63;;;25.06;55.56
61394;BME280;48555;50.952;-0.120;2023-07-29T09:05:58;100138.47;;;25.01;55.83
61394;BME280;48555;50.952;-0.120;2023-07-29T09:08:27;100137.53;;;25.14;55.92
61394;BME280;48555;50.952;-0.120;2023-07-29T09:10:54;100136.53;;;25.08;56.40
61394;BME280;48555;50.952;-0.120;2023-07-29T09:13:21;100134.47;;;25.10;55.69
61394;BME280;48555;50.952;-0.120;2023-07-29T09:15:47;100135.88;;;25.13;55.97
61394;BME280;48555;50.952;-0.120;2023-07-29T09:18:18;100137.66;;;25.01;55.84
61394;BME280;48555;50.952;-0.120;2023-07-29T09:20:43;100144.31;;;24.91;55.25
61394;BME280;48555;50.952;-0.120;2023-07-29T09:23:10;100142.38;;;24.74;55.61
61394;BME280;48555;50.952;-0.120;2023-07-29T09:25:36;100146.91;;;24.73;55.97
61394;BME280;48555;50.952;-0.120;2023-07-29T09:28:10;100144.66;;;24.70;56.29
61394;BME280;48555;50.952;-0.120;2023-07-29T09:30:38;100147.19;;;24.65;55.55
61394;BME280;48555;50.952;-0.120;2023-07-29T09:33:04;100141.13;;;24.51;55.26
61394;BME280;48555;50.952;-0.120;2023-07-29T09:35:30;100149.91;;;24.58;55.64
61394;BME280;48555;50.952;-0.120;2023-07-29T09:37:57;100139.88;;;24.79;56.12
61394;BME280;48555;50.952;-0.120;2023-07-29T09:40:22;100137.25;;;24.72;56.18
61394;BME280;48555;50.952;-0.120;2023-07-29T09:42:49;100150.75;;;24.84;55.15
61394;BME280;48555;50.952;-0.120;2023-07-29T09:45:23;100162.19;;;24.91;54.86
61394;BME280;48555;50.952;-0.120;2023-07-29T09:47:49;100159.59;;;25.09;55.58
61394;BME280;48555;50.952;-0.120;2023-07-29T09:50:14;100148.41;;;25.19;55.30
61394;BME280;48555;50.952;-0.120;2023-07-29T09:52:41;100142.25;;;25.37;54.81
61394;BME280;48555;50.952;-0.120;2023-07-29T09:55:07;100157.06;;;25.58;55.05
61394;BME280;48555;50.952;-0.120;2023-07-29T09:57:33;100160.78;;;25.75;54.79
61394;BME280;48555;50.952;-0.120;2023-07-29T09:59:58;100161.56;;;25.82;53.75
61394;BME280;48555;50.952;-0.120;2023-07-29T10:02:24;100159.53;;;25.96;53.52
61394;BME280;48555;50.952;-0.120;2023-07-29T10:04:52;100154.13;;;26.15;53.31
61394;BME280;48555;50.952;-0.120;2023-07-29T10:07:19;100153.94;;;26.16;51.71
61394;BME280;48555;50.952;-0.120;2023-07-29T10:09:45;100168.22;;;26.10;51.06
61394;BME280;48555;50.952;-0.120;2023-07-29T10:12:12;100168.22;;;26.10;50.06
61394;BME280;48555;50.952;-0.120;2023-07-29T10:14:38;100160.78;;;26.12;49.87
61394;BME280;48555;50.952;-0.120;2023-07-29T10:17:05;100161.16;;;26.16;49.72
61394;BME280;48555;50.952;-0.120;2023-07-29T10:19:31;100164.03;;;26.14;49.73
61394;BME280;48555;50.952;-0.120;2023-07-29T10:21:59;100159.28;;;26.16;49.61
61394;BME280;48555;50.952;-0.120;2023-07-29T10:24:30;100160.69;;;26.19;49.33
61394;BME280;48555;50.952;-0.120;2023-07-29T10:27:00;100167.63;;;26.08;48.68
61394;BME280;48555;50.952;-0.120;2023-07-29T10:29:31;100169.28;;;26.09;48.56
61394;BME280;48555;50.952;-0.120;2023-07-29T10:32:02;100166.38;;;26.11;48.49
61394;BME280;48555;50.952;-0.120;2023-07-29T10:34:30;100167.47;;;26.03;48.37
61394;BME280;48555;50.952;-0.120;2023-07-29T10:36:56;100165.69;;;25.97;48.55
61394;BME280;48555;50.952;-0.120;2023-07-29T10:39:24;100168.63;;;25.95;48.77
61394;BME280;48555;50.952;-0.120;2023-07-29T10:49:40;100177.56;;;25.89;48.36
61394;BME280;48555;50.952;-0.120;2023-07-29T10:52:05;100168.91;;;26.05;48.58
61394;BME280;48555;50.952;-0.120;2023-07-29T10:54:42;100178.50;;;26.13;48.97
61394;BME280;48555;50.952;-0.120;2023-07-29T10:57:07;100181.72;;;26.34;48.26
61394;BME280;48555;50.952;-0.120;2023-07-29T10:59:33;100181.97;;;26.44;48.72
61394;BME280;48555;50.952;-0.120;2023-07-29T11:02:00;100190.72;;;26.39;48.46
61394;BME280;48555;50.952;-0.120;2023-07-29T11:04:29;100196.41;;;26.31;47.97
61394;BME280;48555;50.952;-0.120;2023-07-29T11:07:21;100188.41;;;26.13;48.76
61394;BME280;48555;50.952;-0.120;2023-07-29T11:12:33;100186.53;;;25.76;49.87
61394;BME280;48555;50.952;-0.120;2023-07-29T11:15:16;100181.56;;;25.80;50.82
61394;BME280;48555;50.952;-0.120;2023-07-29T11:20:14;100187.88;;;26.04;51.70
61394;BME280;48555;50.952;-0.120;2023-07-29T11:22:40;100187.00;;;26.10;51.06
61394;BME280;48555;50.952;-0.120;2023-07-29T11:25:08;100190.19;;;26.19;50.33
61394;BME280;48555;50.952;-0.120;2023-07-29T11:27:34;100173.63;;;26.22;51.05
61394;BME280;48555;50.952;-0.120;2023-07-29T11:30:04;100178.00;;;26.35;50.79
61394;BME280;48555;50.952;-0.120;2023-07-29T11:32:37;100175.66;;;26.38;50.98
61394;BME280;48555;50.952;-0.120;2023-07-29T11:35:13;100186.88;;;26.47;51.33
61394;BME280;48555;50.952;-0.120;2023-07-29T11:37:40;100186.19;;;26.40;50.96
61394;BME280;48555;50.952;-0.120;2023-07-29T11:40:06;100189.00;;;26.45;50.30
61394;BME280;48555;50.952;-0.120;2023-07-29T11:42:34;100182.75;;;26.51;49.98
61394;BME280;48555;50.952;-0.120;2023-07-29T11:45:00;100190.41;;;26.47;50.87
61394;BME280;48555;50.952;-0.120;2023-07-29T11:47:25;100184.22;;;26.47;49.66
61394;BME280;48555;50.952;-0.120;2023-07-29T11:49:51;100177.81;;;26.48;49.58
61394;BME280;48555;50.952;-0.120;2023-07-29T11:52:18;100198.53;;;26.59;49.59
61394;BME280;48555;50.952;-0.120;2023-07-29T11:54:45;100188.94;;;26.52;47.95
61394;BME280;48555;50.952;-0.120;2023-07-29T11:57:12;100193.38;;;26.58;48.47
61394;BME280;48555;50.952;-0.120;2023-07-29T11:59:39;100205.03;;;26.52;49.16
61394;BME280;48555;50.952;-0.120;2023-07-29T12:02:08;100195.47;;;26.56;49.71
61394;BME280;48555;50.952;-0.120;2023-07-29T12:04:35;100188.16;;;26.63;50.40
61394;BME280;48555;50.952;-0.120;2023-07-29T12:07:01;100196.75;;;26.65;50.44
61394;BME280;48555;50.952;-0.120;2023-07-29T12:09:27;100202.22;;;26.58;50.25
61394;BME280;48555;50.952;-0.120;2023-07-29T12:11:55;100205.91;;;26.45;49.20
61394;BME280;48555;50.952;-0.120;2023-07-29T12:14:21;100201.00;;;26.42;49.61
61394;BME280;48555;50.952;-0.120;2023-07-29T12:16:48;100203.69;;;26.42;49.78
61394;BME280;48555;50.952;-0.120;2023-07-29T12:19:14;100197.84;;;26.45;48.99
61394;BME280;48555;50.952;-0.120;2023-07-29T12:21:44;100212.25;;;26.51;49.39
61394;BME280;48555;50.952;-0.120;2023-07-29T12:24:09;100212.88;;;26.46;49.59
61394;BME280;48555;50.952;-0.120;2023-07-29T12:26:37;100205.41;;;26.37;49.79
61394;BME280;48555;50.952;-0.120;2023-07-29T12:29:16;100203.84;;;26.29;51.02
61394;BME280;48555;50.952;-0.120;2023-07-29T12:31:42;100210.97;;;26.35;51.33
61394;BME280;48555;50.952;-0.120;2023-07-29T12:34:08;100210.63;;;26.32;51.09
61394;BME280;48555;50.952;-0.120;2023-07-29T12:36:44;100217.19;;;26.36;51.33
61394;BME280;48555;50.952;-0.120;2023-07-29T12:39:21;100222.16;;;26.32;50.39
61394;BME280;48555;50.952;-0.120;2023-07-29T12:41:47;100216.66;;;26.27;49.60
61394;BME280;48555;50.952;-0.120;2023-07-29T12:44:13;100223.66;;;26.28;49.98
61394;BME280;48555;50.952;-0.120;2023-07-29T12:46:38;100233.19;;;26.24;49.92
61394;BME280;48555;50.952;-0.120;2023-07-29T12:49:03;100226.44;;;26.21;49.64
61394;BME280;48555;50.952;-0.120;2023-07-29T12:51:29;100226.50;;;26.15;50.56